sensor_id;sensor_type;location;lat;lon;timestamp;P1;durP1;ratioP1;P2;durP2;ratioP2
37445;SDS011;23307;51.136;14.942;2022-09-09T00:00:13;2.50;;;1.08;;
37445;SDS011;23307;51.136;14.942;2022-09-09T00:02:41;1.45;;;1.02;;
37445;SDS011;23307;51.136;14.942;2022-09-09T00:08:06;1.33;;;1.20;;
37445;SDS011;23307;51.136;14.942;2022-09-09T00:10:44;1.15;;;0.90;;
37445;SDS011;23307;51.136;14.942;2022-09-09T00:21:23;1.50;;;1.10;;
37445;SDS011;23307;51.136;14.942;2022-09-09T00:24:00;1.23;;;1.13;;
37445;SDS011;23307;51.136;14.942;2022-09-09T00:26:48;1.30;;;1.20;;
37445;SDS011;23307;51.136;14.942;2022-09-09T00:31:43;3.65;;;1.17;;
37445;SDS011;23307;51.136;14.942;2022-09-09T00:34:11;1.63;;;1.00;;
37445;SDS011;23307;51.136;14.942;2022-09-09T00:36:39;1.95;;;1.02;;
37445;SDS011;23307;51.136;14.942;2022-09-09T00:39:08;1.65;;;1.05;;
37445;SDS011;23307;51.136;14.942;2022-09-09T00:41:48;1.10;;;1.00;;
37445;SDS011;23307;51.136;14.942;2022-09-09T00:44:33;1.10;;;1.00;;
37445;SDS011;23307;51.136;14.942;2022-09-09T00:52:44;1.10;;;1.00;;
37445;SDS011;23307;51.136;14.942;2022-09-09T00:55:48;2.78;;;1.13;;
37445;SDS011;23307;51.136;14.942;2022-09-09T00:58:30;2.22;;;1.10;;
37445;SDS011;23307;51.136;14.942;2022-09-09T01:00:57;4.15;;;1.10;;
37445;SDS011;23307;51.136;14.942;2022-09-09T01:03:35;1.42;;;0.80;;
37445;SDS011;23307;51.136;14.942;2022-09-09T01:13:47;2.33;;;1.00;;
37445;SDS011;23307;51.136;14.942;2022-09-09T01:16:24;1.70;;;1.00;;
37445;SDS011;23307;51.136;14.942;2022-09-09T01:18:52;1.42;;;1.15;;
37445;SDS011;23307;51.136;14.942;2022-09-09T01:21:22;2.35;;;1.20;;
37445;SDS011;23307;51.136;14.942;2022-09-09T01:24:16;1.15;;;1.08;;
37445;SDS011;23307;51.136;14.942;2022-09-09T01:26:48;1.73;;;1.10;;
37445;SDS011;23307;51.136;14.942;2022-09-09T01:29:17;3.03;;;1.30;;
37445;SDS011;23307;51.136;14.942;2022-09-09T01:34:29;1.88;;;1.40;;
37445;SDS011;23307;51.136;14.942;2022-09-09T01:37:16;3.17;;;1.30;;
37445;SDS011;23307;51.136;14.942;2022-09-09T01:39:42;2.55;;;1.45;;
37445;SDS011;23307;51.136;14.942;2022-09-09T01:42:10;2.75;;;1.23;;
37445;SDS011;23307;51.136;14.942;2022-09-09T01:44:38;1.52;;;1.40;;
37445;SDS011;23307;51.136;14.942;2022-09-09T01:47:04;2.58;;;1.30;;
37445;SDS011;23307;51.136;14.942;2022-09-09T01:49:30;2.97;;;1.20;;
37445;SDS011;23307;51.136;14.942;2022-09-09T01:51:57;1.80;;;1.30;;
37445;SDS011;23307;51.136;14.942;2022-09-09T01:54:24;1.90;;;1.50;;
37445;SDS011;23307;51.136;14.942;2022-09-09T01:59:43;2.08;;;1.40;;
37445;SDS011;23307;51.136;14.942;2022-09-09T02:02:19;4.53;;;1.20;;
37445;SDS011;23307;51.136;14.942;2022-09-09T02:08:00;2.67;;;1.20;;
37445;SDS011;23307;51.136;14.942;2022-09-09T02:13:40;1.20;;;1.10;;
37445;SDS011;23307;51.136;14.942;2022-09-09T02:16:10;3.33;;;1.10;;
37445;SDS011;23307;51.136;14.942;2022-09-09T02:18:51;1.90;;;1.10;;
37445;SDS011;23307;51.136;14.942;2022-09-09T02:21:50;2.35;;;1.30;;
37445;SDS011;23307;51.136;14.942;2022-09-09T02:24:20;1.65;;;1.10;;
37445;SDS011;23307;51.136;14.942;2022-09-09T02:26:48;3.47;;;1.10;;
37445;SDS011;23307;51.136;14.942;2022-09-09T02:29:27;1.63;;;1.20;;
37445;SDS011;23307;51.136;14.942;2022-09-09T02:32:09;1.60;;;1.27;;
37445;SDS011;23307;51.136;14.942;2022-09-09T02:34:47;1.52;;;1.13;;
37445;SDS011;23307;51.136;14.942;2022-09-09T02:37:21;2.42;;;1.30;;
37445;SDS011;23307;51.136;14.942;2022-09-09T02:39:53;1.00;;;0.95;;
37445;SDS011;23307;51.136;14.942;2022-09-09T02:42:19;1.85;;;1.20;;
37445;SDS011;23307;51.136;14.942;2022-09-09T02:44:45;4.25;;;1.40;;
37445;SDS011;23307;51.136;14.942;2022-09-09T02:47:16;1.80;;;1.35;;
37445;SDS011;23307;51.136;14.942;2022-09-09T02:52:30;1.33;;;1.20;;
37445;SDS011;23307;51.136;14.942;2022-09-09T02:55:16;2.42;;;1.50;;
37445;SDS011;23307;51.136;14.942;2022-09-09T02:57:43;2.60;;;1.50;;
37445;SDS011;23307;51.136;14.942;2022-09-09T03:00:12;1.88;;;1.50;;
37445;SDS011;23307;51.136;14.942;2022-09-09T03:02:38;4.68;;;1.58;;
37445;SDS011;23307;51.136;14.942;2022-09-09T03:05:04;2.45;;;1.60;;
37445;SDS011;23307;51.136;14.942;2022-09-09T03:07:31;2.00;;;1.35;;
37445;SDS011;23307;51.136;14.942;2022-09-09T03:09:56;2.65;;;1.50;;
37445;SDS011;23307;51.136;14.942;2022-09-09T03:12:23;1.73;;;1.60;;
37445;SDS011;23307;51.136;14.942;2022-09-09T03:14:48;1.90;;;1.50;;
37445;SDS011;23307;51.136;14.942;2022-09-09T03:17:14;3.58;;;1.70;;
37445;SDS011;23307;51.136;14.942;2022-09-09T03:19:40;2.17;;;1.33;;
37445;SDS011;23307;51.136;14.942;2022-09-09T03:22:06;2.90;;;2.00;;
37445;SDS011;23307;51.136;14.942;2022-09-09T03:24:33;1.85;;;1.70;;
37445;SDS011;23307;51.136;14.942;2022-09-09T03:26:58;2.03;;;1.90;;
37445;SDS011;23307;51.136;14.942;2022-09-09T03:29:24;2.22;;;1.95;;
37445;SDS011;23307;51.136;14.942;2022-09-09T03:31:49;2.22;;;1.77;;
37445;SDS011;23307;51.136;14.942;2022-09-09T03:34:16;2.17;;;1.90;;
37445;SDS011;23307;51.136;14.942;2022-09-09T03:36:41;1.90;;;1.77;;
37445;SDS011;23307;51.136;14.942;2022-09-09T03:39:07;2.72;;;1.60;;
37445;SDS011;23307;51.136;14.942;2022-09-09T03:41:32;2.00;;;1.80;;
37445;SDS011;23307;51.136;14.942;2022-09-09T03:43:59;3.83;;;1.98;;
37445;SDS011;23307;51.136;14.942;2022-09-09T03:46:24;1.92;;;1.75;;
37445;SDS011;23307;51.136;14.942;2022-09-09T03:48:50;2.95;;;1.88;;
37445;SDS011;23307;51.136;14.942;2022-09-09T03:51:19;3.67;;;1.77;;
37445;SDS011;23307;51.136;14.942;2022-09-09T03:53:46;4.32;;;1.60;;
37445;SDS011;23307;51.136;14.942;2022-09-09T03:56:11;2.33;;;2.05;;
37445;SDS011;23307;51.136;14.942;2022-09-09T03:58:37;4.22;;;1.70;;
37445;SDS011;23307;51.136;14.942;2022-09-09T04:01:04;3.13;;;1.70;;
37445;SDS011;23307;51.136;14.942;2022-09-09T04:03:31;3.63;;;1.80;;
37445;SDS011;23307;51.136;14.942;2022-09-09T04:05:57;3.90;;;1.85;;
37445;SDS011;23307;51.136;14.942;2022-09-09T04:08:24;3.10;;;1.92;;
37445;SDS011;23307;51.136;14.942;2022-09-09T04:10:51;1.90;;;1.80;;
37445;SDS011;23307;51.136;14.942;2022-09-09T04:13:17;2.13;;;1.80;;
37445;SDS011;23307;51.136;14.942;2022-09-09T04:15:49;3.17;;;1.92;;
37445;SDS011;23307;51.136;14.942;2022-09-09T04:18:20;2.33;;;1.90;;
37445;SDS011;23307;51.136;14.942;2022-09-09T04:20:50;3.67;;;1.85;;
37445;SDS011;23307;51.136;14.942;2022-09-09T04:23:17;3.03;;;1.70;;
37445;SDS011;23307;51.136;14.942;2022-09-09T04:25:48;2.60;;;1.80;;
37445;SDS011;23307;51.136;14.942;2022-09-09T04:28:16;3.40;;;1.90;;
37445;SDS011;23307;51.136;14.942;2022-09-09T04:30:43;3.55;;;2.10;;
37445;SDS011;23307;51.136;14.942;2022-09-09T04:33:09;2.67;;;1.77;;
37445;SDS011;23307;51.136;14.942;2022-09-09T04:35:36;1.88;;;1.77;;
37445;SDS011;23307;51.136;14.942;2022-09-09T04:38:03;5.90;;;1.92;;
37445;SDS011;23307;51.136;14.942;2022-09-09T04:40:30;2.83;;;1.80;;
37445;SDS011;23307;51.136;14.942;2022-09-09T04:42:59;3.00;;;1.95;;
37445;SDS011;23307;51.136;14.942;2022-09-09T04:45:27;2.30;;;1.95;;
37445;SDS011;23307;51.136;14.942;2022-09-09T04:47:53;2.40;;;1.83;;
37445;SDS011;23307;51.136;14.942;2022-09-09T04:50:19;3.88;;;1.73;;
37445;SDS011;23307;51.136;14.942;2022-09-09T04:52:45;2.10;;;1.60;;
37445;SDS011;23307;51.136;14.942;2022-09-09T04:55:11;4.00;;;1.88;;
37445;SDS011;23307;51.136;14.942;2022-09-09T04:57:38;1.90;;;1.70;;
37445;SDS011;23307;51.136;14.942;2022-09-09T05:00:04;2.72;;;1.70;;
37445;SDS011;23307;51.136;14.942;2022-09-09T05:02:30;3.40;;;1.80;;
37445;SDS011;23307;51.136;14.942;2022-09-09T05:04:57;1.88;;;1.60;;
37445;SDS011;23307;51.136;14.942;2022-09-09T05:07:23;2.22;;;1.60;;
37445;SDS011;23307;51.136;14.942;2022-09-09T05:09:48;2.95;;;1.80;;
37445;SDS011;23307;51.136;14.942;2022-09-09T05:12:14;2.35;;;1.77;;
37445;SDS011;23307;51.136;14.942;2022-09-09T05:14:44;1.88;;;1.70;;
37445;SDS011;23307;51.136;14.942;2022-09-09T05:17:09;2.40;;;2.00;;
37445;SDS011;23307;51.136;14.942;2022-09-09T05:19:35;2.25;;;1.70;;
37445;SDS011;23307;51.136;14.942;2022-09-09T05:22:01;3.40;;;1.70;;
37445;SDS011;23307;51.136;14.942;2022-09-09T05:24:27;1.60;;;1.50;;
37445;SDS011;23307;51.136;14.942;2022-09-09T05:26:53;3.05;;;1.73;;
37445;SDS011;23307;51.136;14.942;2022-09-09T05:29:21;4.68;;;1.55;;
37445;SDS011;23307;51.136;14.942;2022-09-09T05:31:46;2.03;;;1.58;;
37445;SDS011;23307;51.136;14.942;2022-09-09T05:34:12;3.28;;;1.50;;
37445;SDS011;23307;51.136;14.942;2022-09-09T05:36:38;2.50;;;1.40;;
37445;SDS011;23307;51.136;14.942;2022-09-09T05:39:04;2.50;;;1.50;;
37445;SDS011;23307;51.136;14.942;2022-09-09T05:41:29;3.30;;;1.48;;
37445;SDS011;23307;51.136;14.942;2022-09-09T05:43:56;2.08;;;1.55;;
37445;SDS011;23307;51.136;14.942;2022-09-09T05:46:24;1.42;;;1.30;;
37445;SDS011;23307;51.136;14.942;2022-09-09T05:48:52;2.75;;;1.50;;
37445;SDS011;23307;51.136;14.942;2022-09-09T05:51:19;1.88;;;1.60;;
37445;SDS011;23307;51.136;14.942;2022-09-09T05:53:47;4.20;;;1.75;;
37445;SDS011;23307;51.136;14.942;2022-09-09T05:56:15;1.55;;;1.45;;
37445;SDS011;23307;51.136;14.942;2022-09-09T05:58:46;2.45;;;1.33;;
37445;SDS011;23307;51.136;14.942;2022-09-09T06:01:13;1.67;;;1.40;;
37445;SDS011;23307;51.136;14.942;2022-09-09T06:03:41;1.80;;;1.38;;
37445;SDS011;23307;51.136;14.942;2022-09-09T06:06:09;1.52;;;1.42;;
37445;SDS011;23307;51.136;14.942;2022-09-09T06:08:38;2.33;;;1.80;;
37445;SDS011;23307;51.136;14.942;2022-09-09T06:11:06;1.40;;;1.30;;
37445;SDS011;23307;51.136;14.942;2022-09-09T06:13:33;2.25;;;1.40;;
37445;SDS011;23307;51.136;14.942;2022-09-09T06:16:00;1.75;;;1.35;;
37445;SDS011;23307;51.136;14.942;2022-09-09T06:18:26;1.75;;;1.58;;
37445;SDS011;23307;51.136;14.942;2022-09-09T06:20:59;2.22;;;1.40;;
37445;SDS011;23307;51.136;14.942;2022-09-09T06:23:26;3.08;;;1.83;;
37445;SDS011;23307;51.136;14.942;2022-09-09T06:28:38;3.58;;;1.60;;
37445;SDS011;23307;51.136;14.942;2022-09-09T06:31:05;1.58;;;1.48;;
37445;SDS011;23307;51.136;14.942;2022-09-09T06:33:34;3.15;;;1.60;;
37445;SDS011;23307;51.136;14.942;2022-09-09T06:36:01;1.80;;;1.70;;
37445;SDS011;23307;51.136;14.942;2022-09-09T06:38:31;1.90;;;1.50;;
37445;SDS011;23307;51.136;14.942;2022-09-09T06:40:57;2.75;;;1.60;;
37445;SDS011;23307;51.136;14.942;2022-09-09T06:43:26;1.85;;;1.48;;
37445;SDS011;23307;51.136;14.942;2022-09-09T06:45:59;2.58;;;1.58;;
37445;SDS011;23307;51.136;14.942;2022-09-09T06:48:27;2.28;;;1.52;;
37445;SDS011;23307;51.136;14.942;2022-09-09T06:51:03;3.28;;;1.80;;
37445;SDS011;23307;51.136;14.942;2022-09-09T06:53:32;2.60;;;1.77;;
37445;SDS011;23307;51.136;14.942;2022-09-09T06:58:37;3.80;;;1.90;;
37445;SDS011;23307;51.136;14.942;2022-09-09T07:01:08;3.78;;;1.90;;
37445;SDS011;23307;51.136;14.942;2022-09-09T07:03:34;3.00;;;1.80;;
37445;SDS011;23307;51.136;14.942;2022-09-09T07:06:00;6.03;;;1.92;;
37445;SDS011;23307;51.136;14.942;2022-09-09T07:08:26;3.63;;;1.90;;
37445;SDS011;23307;51.136;14.942;2022-09-09T07:10:52;3.85;;;1.80;;
37445;SDS011;23307;51.136;14.942;2022-09-09T07:13:25;3.58;;;2.00;;
37445;SDS011;23307;51.136;14.942;2022-09-09T07:15:52;2.72;;;2.10;;
37445;SDS011;23307;51.136;14.942;2022-09-09T07:18:18;2.13;;;1.65;;
37445;SDS011;23307;51.136;14.942;2022-09-09T07:20:53;2.15;;;1.63;;
37445;SDS011;23307;51.136;14.942;2022-09-09T07:23:20;4.03;;;1.75;;
37445;SDS011;23307;51.136;14.942;2022-09-09T07:25:45;3.70;;;1.70;;
37445;SDS011;23307;51.136;14.942;2022-09-09T07:28:12;2.28;;;1.90;;
37445;SDS011;23307;51.136;14.942;2022-09-09T07:30:39;2.83;;;2.10;;
37445;SDS011;23307;51.136;14.942;2022-09-09T07:33:05;2.70;;;2.10;;
37445;SDS011;23307;51.136;14.942;2022-09-09T07:35:31;3.72;;;1.83;;
37445;SDS011;23307;51.136;14.942;2022-09-09T07:37:57;4.38;;;2.60;;
37445;SDS011;23307;51.136;14.942;2022-09-09T07:40:26;3.13;;;2.30;;
37445;SDS011;23307;51.136;14.942;2022-09-09T07:42:51;3.05;;;2.42;;
37445;SDS011;23307;51.136;14.942;2022-09-09T07:45:18;2.63;;;2.40;;
37445;SDS011;23307;51.136;14.942;2022-09-09T07:47:44;2.83;;;2.42;;
37445;SDS011;23307;51.136;14.942;2022-09-09T07:50:09;2.90;;;2.40;;
37445;SDS011;23307;51.136;14.942;2022-09-09T07:52:35;5.18;;;2.63;;
37445;SDS011;23307;51.136;14.942;2022-09-09T07:55:01;3.95;;;2.83;;
37445;SDS011;23307;51.136;14.942;2022-09-09T07:57:30;6.03;;;3.10;;
37445;SDS011;23307;51.136;14.942;2022-09-09T07:59:56;3.90;;;3.35;;
37445;SDS011;23307;51.136;14.942;2022-09-09T08:02:23;3.80;;;3.10;;
37445;SDS011;23307;51.136;14.942;2022-09-09T08:04:50;3.88;;;3.53;;
37445;SDS011;23307;51.136;14.942;2022-09-09T08:07:16;3.97;;;3.65;;
37445;SDS011;23307;51.136;14.942;2022-09-09T08:09:42;3.63;;;3.30;;
37445;SDS011;23307;51.136;14.942;2022-09-09T08:12:08;4.63;;;4.18;;
37445;SDS011;23307;51.136;14.942;2022-09-09T08:14:34;5.95;;;3.80;;
37445;SDS011;23307;51.136;14.942;2022-09-09T08:17:00;4.57;;;3.88;;
37445;SDS011;23307;51.136;14.942;2022-09-09T08:19:26;4.95;;;3.88;;
37445;SDS011;23307;51.136;14.942;2022-09-09T08:21:54;4.90;;;3.72;;
37445;SDS011;23307;51.136;14.942;2022-09-09T08:24:20;3.58;;;3.28;;
37445;SDS011;23307;51.136;14.942;2022-09-09T08:26:48;4.88;;;3.88;;
37445;SDS011;23307;51.136;14.942;2022-09-09T08:29:14;3.70;;;3.40;;
37445;SDS011;23307;51.136;14.942;2022-09-09T08:31:42;4.63;;;3.53;;
37445;SDS011;23307;51.136;14.942;2022-09-09T08:34:19;4.63;;;3.03;;
37445;SDS011;23307;51.136;14.942;2022-09-09T08:36:45;3.75;;;3.08;;
37445;SDS011;23307;51.136;14.942;2022-09-09T08:39:13;3.83;;;3.20;;
37445;SDS011;23307;51.136;14.942;2022-09-09T08:50:28;2.70;;;2.50;;
37445;SDS011;23307;51.136;14.942;2022-09-09T08:52:38;2.85;;;2.65;;
37445;SDS011;23307;51.136;14.942;2022-09-09T08:55:24;3.78;;;2.83;;
37445;SDS011;23307;51.136;14.942;2022-09-09T08:58:09;4.88;;;2.88;;
37445;SDS011;23307;51.136;14.942;2022-09-09T09:03:21;4.15;;;2.85;;
37445;SDS011;23307;51.136;14.942;2022-09-09T09:11:17;4.03;;;2.70;;
37445;SDS011;23307;51.136;14.942;2022-09-09T09:16:51;2.85;;;2.42;;
37445;SDS011;23307;51.136;14.942;2022-09-09T09:19:39;2.72;;;2.28;;
37445;SDS011;23307;51.136;14.942;2022-09-09T09:22:19;3.30;;;2.25;;
37445;SDS011;23307;51.136;14.942;2022-09-09T09:25:01;3.00;;;2.47;;
37445;SDS011;23307;51.136;14.942;2022-09-09T09:30:44;2.72;;;2.30;;
37445;SDS011;23307;51.136;14.942;2022-09-09T09:33:22;3.33;;;2.15;;
37445;SDS011;23307;51.136;14.942;2022-09-09T09:36:08;3.05;;;1.48;;
37445;SDS011;23307;51.136;14.942;2022-09-09T09:38:34;4.28;;;1.70;;
37445;SDS011;23307;51.136;14.942;2022-09-09T09:41:01;2.25;;;1.42;;
37445;SDS011;23307;51.136;14.942;2022-09-09T09:43:28;3.38;;;1.67;;
37445;SDS011;23307;51.136;14.942;2022-09-09T09:45:57;3.90;;;1.40;;
37445;SDS011;23307;51.136;14.942;2022-09-09T09:48:23;3.65;;;1.60;;
37445;SDS011;23307;51.136;14.942;2022-09-09T09:50:54;3.00;;;1.50;;
37445;SDS011;23307;51.136;14.942;2022-09-09T09:53:24;2.65;;;1.60;;
37445;SDS011;23307;51.136;14.942;2022-09-09T09:55:59;2.33;;;1.70;;
37445;SDS011;23307;51.136;14.942;2022-09-09T09:58:27;2.30;;;1.45;;
37445;SDS011;23307;51.136;14.942;2022-09-09T10:00:58;2.30;;;1.60;;
37445;SDS011;23307;51.136;14.942;2022-09-09T10:03:32;2.83;;;1.42;;
37445;SDS011;23307;51.136;14.942;2022-09-09T10:06:03;3.38;;;1.60;;
37445;SDS011;23307;51.136;14.942;2022-09-09T10:08:29;1.95;;;1.25;;
37445;SDS011;23307;51.136;14.942;2022-09-09T10:10:57;2.92;;;1.60;;
37445;SDS011;23307;51.136;14.942;2022-09-09T10:16:19;2.20;;;1.52;;
37445;SDS011;23307;51.136;14.942;2022-09-09T10:19:01;2.53;;;1.70;;
37445;SDS011;23307;51.136;14.942;2022-09-09T10:24:28;2.30;;;1.35;;
37445;SDS011;23307;51.136;14.942;2022-09-09T10:27:24;2.78;;;1.67;;
37445;SDS011;23307;51.136;14.942;2022-09-09T10:32:41;2.33;;;1.55;;
37445;SDS011;23307;51.136;14.942;2022-09-09T10:35:26;3.08;;;1.70;;
37445;SDS011;23307;51.136;14.942;2022-09-09T10:44:05;2.20;;;1.55;;
37445;SDS011;23307;51.136;14.942;2022-09-09T10:52:51;3.78;;;1.75;;
37445;SDS011;23307;51.136;14.942;2022-09-09T10:55:41;2.30;;;1.40;;
37445;SDS011;23307;51.136;14.942;2022-09-09T11:04:15;2.90;;;1.40;;
37445;SDS011;23307;51.136;14.942;2022-09-09T11:07:05;3.45;;;1.70;;
37445;SDS011;23307;51.136;14.942;2022-09-09T11:09:35;5.57;;;1.50;;
37445;SDS011;23307;51.136;14.942;2022-09-09T11:12:06;3.97;;;1.52;;
37445;SDS011;23307;51.136;14.942;2022-09-09T11:14:40;3.78;;;1.25;;
37445;SDS011;23307;51.136;14.942;2022-09-09T11:17:21;4.78;;;1.50;;
37445;SDS011;23307;51.136;14.942;2022-09-09T11:19:51;2.22;;;1.40;;
37445;SDS011;23307;51.136;14.942;2022-09-09T11:22:27;3.53;;;1.40;;
37445;SDS011;23307;51.136;14.942;2022-09-09T11:38:45;3.90;;;1.90;;
37445;SDS011;23307;51.136;14.942;2022-09-09T11:41:13;6.15;;;2.40;;
37445;SDS011;23307;51.136;14.942;2022-09-09T11:43:42;4.57;;;2.10;;
37445;SDS011;23307;51.136;14.942;2022-09-09T11:46:11;2.47;;;1.35;;
37445;SDS011;23307;51.136;14.942;2022-09-09T11:48:57;3.60;;;1.50;;
37445;SDS011;23307;51.136;14.942;2022-09-09T11:51:26;3.70;;;1.50;;
37445;SDS011;23307;51.136;14.942;2022-09-09T11:53:57;3.38;;;1.10;;
37445;SDS011;23307;51.136;14.942;2022-09-09T11:56:32;2.30;;;1.10;;
37445;SDS011;23307;51.136;14.942;2022-09-09T11:59:20;3.50;;;1.52;;
37445;SDS011;23307;51.136;14.942;2022-09-09T12:01:55;2.00;;;1.10;;
37445;SDS011;23307;51.136;14.942;2022-09-09T12:09:28;1.75;;;0.85;;
37445;SDS011;23307;51.136;14.942;2022-09-09T12:17:28;3.63;;;1.33;;
37445;SDS011;23307;51.136;14.942;2022-09-09T12:20:15;4.88;;;1.33;;
37445;SDS011;23307;51.136;14.942;2022-09-09T12:28:20;2.88;;;1.00;;
37445;SDS011;23307;51.136;14.942;2022-09-09T12:33:47;2.22;;;1.10;;
37445;SDS011;23307;51.136;14.942;2022-09-09T12:36:21;3.58;;;1.10;;
37445;SDS011;23307;51.136;14.942;2022-09-09T12:38:52;2.67;;;1.20;;
37445;SDS011;23307;51.136;14.942;2022-09-09T12:41:23;2.80;;;1.00;;
37445;SDS011;23307;51.136;14.942;2022-09-09T12:43:50;2.50;;;1.30;;
37445;SDS011;23307;51.136;14.942;2022-09-09T12:46:30;2.20;;;1.20;;
37445;SDS011;23307;51.136;14.942;2022-09-09T12:49:01;3.38;;;1.40;;
37445;SDS011;23307;51.136;14.942;2022-09-09T12:51:29;3.20;;;1.10;;
37445;SDS011;23307;51.136;14.942;2022-09-09T12:53:56;4.45;;;1.45;;
37445;SDS011;23307;51.136;14.942;2022-09-09T12:56:24;4.28;;;1.25;;
37445;SDS011;23307;51.136;14.942;2022-09-09T12:58:52;2.65;;;1.15;;
37445;SDS011;23307;51.136;14.942;2022-09-09T13:01:30;1.98;;;1.10;;
37445;SDS011;23307;51.136;14.942;2022-09-09T13:03:58;3.13;;;1.20;;
37445;SDS011;23307;51.136;14.942;2022-09-09T13:06:28;1.65;;;1.27;;
37445;SDS011;23307;51.136;14.942;2022-09-09T13:08:59;1.60;;;1.20;;
37445;SDS011;23307;51.136;14.942;2022-09-09T13:11:28;3.58;;;1.10;;
37445;SDS011;23307;51.136;14.942;2022-09-09T13:14:12;3.35;;;1.20;;
37445;SDS011;23307;51.136;14.942;2022-09-09T13:16:53;4.93;;;1.40;;
37445;SDS011;23307;51.136;14.942;2022-09-09T13:19:24;5.05;;;1.50;;
37445;SDS011;23307;51.136;14.942;2022-09-09T13:21:53;1.70;;;1.10;;
37445;SDS011;23307;51.136;14.942;2022-09-09T13:24:41;3.72;;;1.30;;
37445;SDS011;23307;51.136;14.942;2022-09-09T13:27:31;3.38;;;1.00;;
37445;SDS011;23307;51.136;14.942;2022-09-09T13:29:59;2.17;;;1.30;;
37445;SDS011;23307;51.136;14.942;2022-09-09T13:32:25;1.73;;;1.05;;
37445;SDS011;23307;51.136;14.942;2022-09-09T13:34:53;2.40;;;1.48;;
37445;SDS011;23307;51.136;14.942;2022-09-09T13:37:26;3.13;;;1.58;;
37445;SDS011;23307;51.136;14.942;2022-09-09T13:40:01;2.17;;;1.13;;
37445;SDS011;23307;51.136;14.942;2022-09-09T13:42:29;3.80;;;1.10;;
37445;SDS011;23307;51.136;14.942;2022-09-09T13:45:00;1.60;;;0.90;;
37445;SDS011;23307;51.136;14.942;2022-09-09T13:47:30;2.83;;;1.02;;
37445;SDS011;23307;51.136;14.942;2022-09-09T13:49:58;2.90;;;1.08;;
37445;SDS011;23307;51.136;14.942;2022-09-09T13:52:34;1.92;;;1.10;;
37445;SDS011;23307;51.136;14.942;2022-09-09T13:55:00;1.83;;;1.02;;
37445;SDS011;23307;51.136;14.942;2022-09-09T13:57:26;2.50;;;1.13;;
37445;SDS011;23307;51.136;14.942;2022-09-09T13:59:53;2.88;;;1.15;;
37445;SDS011;23307;51.136;14.942;2022-09-09T14:02:19;3.42;;;1.00;;
37445;SDS011;23307;51.136;14.942;2022-09-09T14:04:47;2.58;;;1.08;;
37445;SDS011;23307;51.136;14.942;2022-09-09T14:07:16;5.55;;;1.30;;
37445;SDS011;23307;51.136;14.942;2022-09-09T14:09:44;2.80;;;1.30;;
37445;SDS011;23307;51.136;14.942;2022-09-09T14:12:14;3.60;;;1.10;;
37445;SDS011;23307;51.136;14.942;2022-09-09T14:14:41;2.30;;;1.10;;
37445;SDS011;23307;51.136;14.942;2022-09-09T14:17:07;2.08;;;1.23;;
37445;SDS011;23307;51.136;14.942;2022-09-09T14:19:33;2.25;;;1.17;;
37445;SDS011;23307;51.136;14.942;2022-09-09T14:21:59;2.90;;;1.30;;
37445;SDS011;23307;51.136;14.942;2022-09-09T14:24:26;2.88;;;1.23;;
37445;SDS011;23307;51.136;14.942;2022-09-09T14:26:52;1.73;;;1.05;;
37445;SDS011;23307;51.136;14.942;2022-09-09T14:29:18;5.70;;;1.30;;
37445;SDS011;23307;51.136;14.942;2022-09-09T14:31:44;2.78;;;1.30;;
37445;SDS011;23307;51.136;14.942;2022-09-09T14:34:10;2.10;;;0.88;;
37445;SDS011;23307;51.136;14.942;2022-09-09T14:36:35;2.72;;;0.80;;
37445;SDS011;23307;51.136;14.942;2022-09-09T14:39:02;2.70;;;0.88;;
37445;SDS011;23307;51.136;14.942;2022-09-09T14:41:29;1.05;;;0.75;;
37445;SDS011;23307;51.136;14.942;2022-09-09T14:43:58;1.52;;;0.85;;
37445;SDS011;23307;51.136;14.942;2022-09-09T14:46:24;1.55;;;0.90;;
37445;SDS011;23307;51.136;14.942;2022-09-09T14:48:51;1.45;;;1.00;;
37445;SDS011;23307;51.136;14.942;2022-09-09T14:51:18;2.50;;;0.98;;
37445;SDS011;23307;51.136;14.942;2022-09-09T14:53:50;0.85;;;0.75;;
37445;SDS011;23307;51.136;14.942;2022-09-09T14:56:20;2.28;;;0.70;;
37445;SDS011;23307;51.136;14.942;2022-09-09T14:58:56;2.28;;;1.25;;
37445;SDS011;23307;51.136;14.942;2022-09-09T15:01:23;2.05;;;0.90;;
37445;SDS011;23307;51.136;14.942;2022-09-09T15:03:59;2.05;;;1.05;;
37445;SDS011;23307;51.136;14.942;2022-09-09T15:06:34;2.45;;;0.88;;
37445;SDS011;23307;51.136;14.942;2022-09-09T15:09:05;2.58;;;0.95;;
37445;SDS011;23307;51.136;14.942;2022-09-09T15:11:40;2.78;;;1.00;;
37445;SDS011;23307;51.136;14.942;2022-09-09T15:14:09;1.65;;;1.00;;
37445;SDS011;23307;51.136;14.942;2022-09-09T15:16:46;2.50;;;0.98;;
37445;SDS011;23307;51.136;14.942;2022-09-09T15:19:28;1.77;;;0.93;;
37445;SDS011;23307;51.136;14.942;2022-09-09T15:21:55;2.60;;;1.17;;
37445;SDS011;23307;51.136;14.942;2022-09-09T15:24:23;2.85;;;0.90;;
37445;SDS011;23307;51.136;14.942;2022-09-09T15:26:54;0.90;;;0.50;;
37445;SDS011;23307;51.136;14.942;2022-09-09T15:29:26;2.22;;;1.30;;
37445;SDS011;23307;51.136;14.942;2022-09-09T15:31:55;2.92;;;1.42;;
37445;SDS011;23307;51.136;14.942;2022-09-09T15:34:21;2.97;;;1.10;;
37445;SDS011;23307;51.136;14.942;2022-09-09T15:36:47;2.63;;;1.20;;
37445;SDS011;23307;51.136;14.942;2022-09-09T15:39:20;2.65;;;0.70;;
37445;SDS011;23307;51.136;14.942;2022-09-09T15:41:47;2.15;;;0.90;;
37445;SDS011;23307;51.136;14.942;2022-09-09T15:44:19;1.70;;;0.93;;
37445;SDS011;23307;51.136;14.942;2022-09-09T15:46:48;2.33;;;0.70;;
37445;SDS011;23307;51.136;14.942;2022-09-09T15:49:16;1.02;;;0.57;;
37445;SDS011;23307;51.136;14.942;2022-09-09T15:51:51;0.70;;;0.60;;
37445;SDS011;23307;51.136;14.942;2022-09-09T15:54:22;0.88;;;0.70;;
37445;SDS011;23307;51.136;14.942;2022-09-09T15:56:54;1.20;;;0.70;;
37445;SDS011;23307;51.136;14.942;2022-09-09T15:59:21;0.93;;;0.68;;
37445;SDS011;23307;51.136;14.942;2022-09-09T16:01:51;4.53;;;0.60;;
37445;SDS011;23307;51.136;14.942;2022-09-09T16:04:20;1.70;;;0.98;;
37445;SDS011;23307;51.136;14.942;2022-09-09T16:06:54;2.40;;;1.05;;
37445;SDS011;23307;51.136;14.942;2022-09-09T16:09:26;1.05;;;0.80;;
37445;SDS011;23307;51.136;14.942;2022-09-09T16:11:55;1.50;;;0.90;;
37445;SDS011;23307;51.136;14.942;2022-09-09T16:14:28;1.65;;;0.80;;
37445;SDS011;23307;51.136;14.942;2022-09-09T16:16:58;2.13;;;0.80;;
37445;SDS011;23307;51.136;14.942;2022-09-09T16:19:24;2.03;;;0.98;;
37445;SDS011;23307;51.136;14.942;2022-09-09T16:21:50;1.23;;;0.77;;
37445;SDS011;23307;51.136;14.942;2022-09-09T16:24:17;2.35;;;1.02;;
37445;SDS011;23307;51.136;14.942;2022-09-09T16:26:44;2.35;;;1.17;;
37445;SDS011;23307;51.136;14.942;2022-09-09T16:29:16;0.95;;;0.73;;
37445;SDS011;23307;51.136;14.942;2022-09-09T16:31:43;1.92;;;0.80;;
37445;SDS011;23307;51.136;14.942;2022-09-09T16:34:09;2.42;;;1.00;;
37445;SDS011;23307;51.136;14.942;2022-09-09T16:36:36;1.65;;;1.10;;
37445;SDS011;23307;51.136;14.942;2022-09-09T16:39:04;2.92;;;1.20;;
37445;SDS011;23307;51.136;14.942;2022-09-09T16:41:32;2.65;;;1.40;;
37445;SDS011;23307;51.136;14.942;2022-09-09T16:43:59;1.23;;;0.90;;
37445;SDS011;23307;51.136;14.942;2022-09-09T16:46:27;2.90;;;1.25;;
37445;SDS011;23307;51.136;14.942;2022-09-09T16:48:53;2.70;;;1.25;;
37445;SDS011;23307;51.136;14.942;2022-09-09T16:51:23;2.95;;;1.05;;
37445;SDS011;23307;51.136;14.942;2022-09-09T16:53:51;2.15;;;1.08;;
37445;SDS011;23307;51.136;14.942;2022-09-09T16:56:19;1.77;;;0.80;;
37445;SDS011;23307;51.136;14.942;2022-09-09T16:58:53;4.75;;;0.90;;